createdAt,value
2017-12-17T02:45:13.686Z,3.70
2017-12-17T03:00:00.158Z,5.15
2017-12-17T03:02:30.669Z,3.80
2017-12-17T03:04:58.745Z,5.72
2017-12-17T03:07:26.809Z,4.80
2017-12-17T05:59:47.473Z,8.05
2017-12-17T06:02:15.513Z,3.80
2017-12-17T06:04:44.350Z,6.43
2017-12-17T06:24:26.857Z,4.03
2017-12-17T06:26:54.904Z,4.32
2017-12-17T06:34:18.780Z,6.22
2017-12-17T06:36:46.910Z,5.57
2017-12-17T06:39:14.980Z,6.82
2017-12-17T06:41:43.036Z,3.85
2017-12-17T06:44:11.090Z,7.93
2017-12-17T06:46:39.900Z,4.40
2017-12-17T06:49:07.980Z,4.45
2017-12-17T06:51:36.016Z,7.43
2017-12-17T06:54:04.950Z,5.10
2017-12-17T06:56:32.993Z,5.47
2017-12-17T06:59:01.805Z,12.73
2017-12-17T07:01:29.903Z,3.30
2017-12-17T07:03:57.941Z,6.82
2017-12-17T07:06:25.984Z,4.80
2017-12-17T07:08:54.908Z,9.45
2017-12-17T07:11:22.964Z,4.10
2017-12-17T07:13:51.058Z,5.45
2017-12-17T07:16:19.128Z,4.65
2017-12-17T07:18:47.176Z,4.93
2017-12-17T07:21:16.032Z,7.03
2017-12-17T07:23:45.585Z,4.55
2017-12-17T07:26:13.670Z,7.05
2017-12-17T07:28:41.728Z,4.47
2017-12-17T07:31:09.772Z,5.75
2017-12-17T07:33:38.704Z,7.22
2017-12-17T07:36:06.757Z,3.40
2017-12-17T07:38:35.560Z,6.45
2017-12-17T07:41:03.616Z,3.70
2017-12-17T07:43:31.676Z,5.15
2017-12-17T07:46:00.501Z,3.90
2017-12-17T07:48:28.562Z,5.25
2017-12-17T07:50:56.605Z,5.05
2017-12-17T07:53:25.529Z,5.35
2017-12-17T07:55:53.577Z,6.57
2017-12-17T07:58:22.496Z,5.60
2017-12-17T08:00:50.556Z,7.78
2017-12-17T08:03:18.636Z,4.22
2017-12-17T08:05:46.697Z,6.30
2017-12-17T08:08:14.781Z,4.07
2017-12-17T08:10:43.228Z,9.10
2017-12-17T08:13:12.061Z,6.00
2017-12-17T08:15:41.352Z,4.28
2017-12-17T08:18:09.429Z,7.43
2017-12-17T08:20:37.493Z,7.03
2017-12-17T08:23:05.569Z,6.35
2017-12-17T08:25:33.641Z,4.68
2017-12-17T08:28:02.121Z,4.90
2017-12-17T08:30:31.424Z,8.35
2017-12-17T08:32:59.485Z,4.57
2017-12-17T08:35:27.529Z,6.32
2017-12-17T08:37:56.360Z,5.43
2017-12-17T08:40:24.821Z,6.47
2017-12-17T08:42:52.909Z,7.87
2017-12-17T08:45:20.980Z,8.13
2017-12-17T08:47:49.049Z,5.78
2017-12-17T08:50:17.128Z,7.90
2017-12-17T08:52:46.424Z,7.60
2017-12-17T08:55:14.496Z,5.55
2017-12-17T08:57:42.568Z,4.18
2017-12-17T09:00:10.630Z,10.43
2017-12-17T09:02:38.714Z,5.22
2017-12-17T09:05:07.603Z,7.45
2017-12-17T09:07:35.673Z,6.80
2017-12-17T09:10:03.853Z,6.93
2017-12-17T09:12:31.919Z,6.28
2017-12-17T09:14:59.976Z,10.23
2017-12-17T09:17:29.055Z,9.05
2017-12-17T09:19:57.973Z,10.15
2017-12-17T09:22:26.049Z,7.50
2017-12-17T09:24:54.124Z,7.25
2017-12-17T09:27:22.201Z,10.88
2017-12-17T09:29:50.269Z,11.55
2017-12-17T09:32:18.749Z,5.95
2017-12-17T09:34:46.929Z,7.00
2017-12-17T09:37:14.968Z,7.65
2017-12-17T09:39:43.902Z,7.53
2017-12-17T09:42:11.949Z,11.52
2017-12-17T09:44:39.997Z,10.07
2017-12-17T09:47:08.836Z,5.53
2017-12-17T09:49:37.290Z,7.32
2017-12-17T09:52:05.332Z,9.73
2017-12-17T09:54:34.157Z,10.73
2017-12-17T09:57:02.201Z,7.37
2017-12-17T09:59:31.121Z,7.50
2017-12-17T10:01:59.605Z,5.05
2017-12-17T10:04:28.058Z,6.22
2017-12-17T10:06:56.872Z,6.30
2017-12-17T10:09:24.937Z,7.87
2017-12-17T10:11:53.001Z,9.93
2017-12-17T10:14:21.074Z,5.40
2017-12-17T10:16:49.117Z,5.05
2017-12-17T10:19:17.161Z,5.60
2017-12-17T10:21:45.221Z,7.87
2017-12-17T10:24:13.380Z,7.30
2017-12-17T10:26:41.425Z,7.32
2017-12-17T10:29:09.868Z,5.50
2017-12-17T10:31:38.004Z,7.62
2017-12-17T10:34:06.484Z,7.28
2017-12-17T10:36:34.541Z,6.35
2017-12-17T10:39:03.044Z,5.45
2017-12-17T10:41:31.205Z,4.95
2017-12-17T10:43:59.304Z,9.00
2017-12-17T10:46:27.356Z,5.18
2017-12-17T10:48:55.430Z,12.25
2017-12-17T10:51:23.487Z,6.05
2017-12-17T10:53:51.577Z,4.45
2017-12-17T10:56:19.649Z,6.72
2017-12-17T10:58:47.716Z,4.80
2017-12-17T11:01:15.780Z,6.37
2017-12-17T11:03:43.821Z,6.25
2017-12-17T11:06:12.749Z,5.25
2017-12-17T11:08:40.793Z,9.98
2017-12-17T11:11:09.622Z,6.70
2017-12-17T11:13:37.802Z,6.70
2017-12-17T11:16:05.849Z,4.75
2017-12-17T11:18:33.921Z,4.43
2017-12-17T11:21:02.005Z,9.15
2017-12-17T11:23:30.077Z,8.85
2017-12-17T11:25:58.964Z,8.40
2017-12-17T11:28:27.037Z,5.90
2017-12-17T11:30:55.116Z,7.37
2017-12-17T11:33:23.159Z,7.40
2017-12-17T11:35:52.074Z,6.40
2017-12-17T11:38:20.140Z,12.32
2017-12-17T11:40:48.585Z,4.80
2017-12-17T11:43:16.652Z,6.82
2017-12-17T11:45:44.796Z,5.20
2017-12-17T11:48:13.285Z,6.15
2017-12-17T11:50:41.432Z,6.87
2017-12-17T11:53:09.499Z,4.45
2017-12-17T11:55:38.321Z,8.55
2017-12-17T11:58:06.765Z,5.68
2017-12-17T12:00:34.823Z,11.73
2017-12-17T12:03:02.840Z,7.10
2017-12-17T12:05:30.921Z,8.63
2017-12-17T12:07:59.745Z,6.35
2017-12-17T12:10:28.584Z,7.87
2017-12-17T12:12:57.396Z,10.65
2017-12-17T12:15:25.441Z,8.50
2017-12-17T12:17:53.494Z,6.25
2017-12-17T12:20:21.562Z,6.37
2017-12-17T12:22:49.993Z,8.70
2017-12-17T12:25:18.053Z,8.10
2017-12-17T12:27:46.210Z,9.48
2017-12-17T12:30:14.873Z,12.20
2017-12-17T12:32:42.921Z,10.65
2017-12-17T12:35:11.863Z,8.25
2017-12-17T12:37:40.671Z,11.15
2017-12-17T12:40:09.485Z,8.35
2017-12-17T12:42:38.353Z,6.82
2017-12-17T12:45:06.480Z,12.50
2017-12-17T12:47:34.657Z,11.38
2017-12-17T12:50:02.705Z,15.90
2017-12-17T12:52:30.761Z,9.70
2017-12-17T12:54:58.813Z,8.35
2017-12-17T12:57:26.882Z,10.15
2017-12-17T12:59:56.449Z,9.35
2017-12-17T13:02:25.261Z,8.55
2017-12-17T13:04:54.094Z,10.77
2017-12-17T13:07:22.940Z,7.15
2017-12-17T13:09:51.022Z,10.10
2017-12-17T13:12:19.069Z,10.63
2017-12-17T13:14:47.117Z,8.88
2017-12-17T13:17:16.033Z,8.10
2017-12-17T13:19:44.861Z,9.68
2017-12-17T13:22:12.993Z,9.65
2017-12-17T13:24:41.260Z,7.20
2017-12-17T13:27:09.313Z,8.98
2017-12-17T13:29:38.257Z,7.18
2017-12-17T13:32:06.364Z,8.23
2017-12-17T13:34:35.011Z,9.25
2017-12-17T13:37:03.841Z,11.65
2017-12-17T13:39:32.968Z,9.70
2017-12-17T13:42:01.171Z,8.30
2017-12-17T13:44:29.581Z,7.18
2017-12-17T13:46:57.913Z,11.70
2017-12-17T13:49:26.378Z,6.78
2017-12-17T13:51:54.713Z,8.40
2017-12-17T13:54:22.872Z,8.52
2017-12-17T13:56:51.705Z,6.75
2017-12-17T13:59:20.256Z,8.93
2017-12-17T14:01:49.902Z,7.55
2017-12-17T14:04:18.394Z,7.15
2017-12-17T14:06:47.329Z,7.12
2017-12-17T14:09:15.785Z,8.38
2017-12-17T14:11:43.828Z,7.60
2017-12-17T14:14:12.653Z,7.07
2017-12-17T14:16:40.781Z,7.80
2017-12-17T14:22:07.075Z,5.65
2017-12-17T14:24:35.856Z,7.20
2017-12-17T14:27:03.925Z,8.60
2017-12-17T14:29:33.219Z,8.65
2017-12-17T14:32:01.259Z,7.05
2017-12-17T14:34:30.098Z,10.18
2017-12-17T14:36:58.908Z,9.75
2017-12-17T14:39:27.505Z,10.88
2017-12-17T14:41:55.592Z,5.00
2017-12-17T14:44:23.709Z,6.40
2017-12-17T14:46:51.757Z,6.37
2017-12-17T14:49:19.788Z,5.30
2017-12-17T15:06:37.648Z,6.57
2017-12-17T15:09:06.577Z,7.55
2017-12-17T15:11:34.645Z,7.25
2017-12-17T15:14:02.787Z,7.45
2017-12-17T15:16:31.296Z,7.57
2017-12-17T15:23:56.067Z,6.28
2017-12-17T15:26:24.876Z,6.12
2017-12-17T15:28:53.020Z,8.05
2017-12-17T15:31:22.335Z,6.55
2017-12-17T15:33:50.468Z,8.02
2017-12-17T15:36:19.740Z,10.70
2017-12-17T15:38:48.578Z,6.75
2017-12-17T15:41:16.750Z,6.27
2017-12-17T15:43:44.831Z,9.20
2017-12-17T15:46:12.893Z,5.90
2017-12-17T15:48:40.949Z,6.40
2017-12-17T15:51:09.012Z,5.90
2017-12-17T15:53:37.852Z,5.05
2017-12-17T15:56:06.041Z,7.25
2017-12-17T15:58:34.167Z,6.30
2017-12-17T16:01:02.228Z,5.53
2017-12-17T16:03:30.422Z,6.05
2017-12-17T16:05:58.904Z,8.43
2017-12-17T16:08:27.060Z,6.50
2017-12-17T16:10:55.120Z,7.80
2017-12-17T16:13:23.325Z,6.03
2017-12-17T16:15:51.479Z,6.97
2017-12-17T16:18:19.632Z,7.60
2017-12-17T16:20:47.684Z,9.55
2017-12-17T16:23:16.511Z,11.20
2017-12-17T16:25:44.560Z,8.50
2017-12-17T16:28:13.449Z,8.48
2017-12-17T16:30:42.371Z,10.95
2017-12-17T16:33:10.438Z,8.70
2017-12-17T16:35:38.888Z,8.77
2017-12-17T16:38:07.813Z,6.80
2017-12-17T16:40:35.885Z,6.07
2017-12-17T16:43:03.964Z,5.97
2017-12-17T16:45:32.029Z,5.28
2017-12-17T16:48:00.480Z,6.07
2017-12-17T16:50:29.308Z,5.75
2017-12-17T16:52:57.367Z,6.62
2017-12-17T16:55:25.412Z,5.85
2017-12-17T16:57:54.329Z,7.32
2017-12-17T17:00:22.814Z,6.82
2017-12-17T17:02:52.060Z,9.25
2017-12-17T17:05:21.277Z,7.10
2017-12-17T17:07:53.409Z,10.75
2017-12-17T17:10:23.084Z,7.43
2017-12-17T17:12:51.148Z,8.57
2017-12-17T17:15:19.641Z,6.93
2017-12-17T17:17:47.684Z,8.38
2017-12-17T17:20:16.508Z,7.62
2017-12-17T17:22:45.708Z,6.80
2017-12-17T17:25:13.764Z,9.80
2017-12-17T17:27:41.856Z,12.93
2017-12-17T17:30:09.925Z,11.45
2017-12-17T17:32:37.986Z,8.82
2017-12-17T17:35:06.047Z,8.93
2017-12-17T17:37:34.136Z,15.07
2017-12-17T17:40:03.341Z,13.05
2017-12-17T17:42:31.441Z,13.93
2017-12-17T17:45:04.232Z,12.30
2017-12-17T17:50:07.609Z,11.00
2017-12-17T17:52:36.538Z,10.82
2017-12-17T17:55:05.780Z,7.85
2017-12-17T17:57:34.241Z,15.18
2017-12-17T18:00:03.060Z,7.60
2017-12-17T18:02:31.132Z,9.02
2017-12-17T18:04:59.200Z,15.32
2017-12-17T18:07:27.256Z,41.22
2017-12-17T18:09:55.332Z,30.55
2017-12-17T18:12:23.389Z,20.50
2017-12-17T18:14:52.210Z,18.67
2017-12-17T18:17:20.273Z,15.30
2017-12-17T18:19:48.764Z,14.95
2017-12-17T18:22:16.837Z,11.40
2017-12-17T18:24:44.885Z,11.35
2017-12-17T18:27:12.936Z,14.82
2017-12-17T18:29:41.460Z,11.25
2017-12-17T18:32:09.543Z,16.35
2017-12-17T18:34:37.584Z,20.52
2017-12-17T18:37:06.413Z,11.15
2017-12-17T18:39:35.215Z,11.57
2017-12-17T18:42:03.356Z,11.75
2017-12-17T18:44:31.529Z,14.23
2017-12-17T18:46:59.967Z,10.43
2017-12-17T18:49:29.528Z,11.32
2017-12-17T18:51:58.356Z,10.35
2017-12-17T18:54:26.405Z,10.57
2017-12-17T18:56:55.264Z,11.20
2017-12-17T18:59:23.753Z,13.70
2017-12-17T19:26:29.242Z,13.30
2017-12-17T19:28:57.297Z,11.90
2017-12-17T19:31:25.821Z,12.02
2017-12-17T19:33:53.887Z,13.10
2017-12-17T19:36:22.348Z,13.25
2017-12-17T19:38:50.445Z,11.93
2017-12-17T19:41:18.616Z,13.77
2017-12-17T19:43:46.687Z,12.27
2017-12-17T19:46:15.908Z,14.45
2017-12-17T19:48:44.364Z,15.93
2017-12-17T19:51:13.552Z,14.87
2017-12-17T19:53:41.624Z,17.25
2017-12-17T19:56:09.709Z,12.90
2017-12-17T19:58:38.929Z,14.38
2017-12-17T20:01:06.981Z,15.00
2017-12-17T20:03:35.060Z,13.10
2017-12-17T20:06:04.357Z,13.07
2017-12-17T20:08:32.837Z,16.25
2017-12-17T20:11:00.888Z,16.15
2017-12-17T20:13:28.981Z,15.13
2017-12-17T20:15:57.048Z,13.18
2017-12-17T20:18:25.867Z,15.45
2017-12-17T20:20:53.936Z,10.50
2017-12-17T20:23:22.385Z,13.77
2017-12-17T20:25:50.444Z,12.93
2017-12-17T20:28:18.510Z,14.90
2017-12-17T20:30:46.960Z,12.02
2017-12-17T20:33:15.424Z,13.73
2017-12-17T20:35:43.484Z,13.00
2017-12-17T20:38:11.552Z,11.57
2017-12-17T20:40:39.612Z,12.93
2017-12-17T20:43:07.682Z,13.98
2017-12-17T20:45:35.757Z,11.00
2017-12-17T20:48:03.820Z,12.73
2017-12-17T20:50:32.265Z,13.45
2017-12-17T20:53:00.332Z,11.85
2017-12-17T20:55:28.773Z,12.02
2017-12-17T20:57:56.845Z,14.45
2017-12-17T21:00:24.905Z,10.82
2017-12-17T21:02:53.072Z,14.05
2017-12-17T21:05:21.148Z,14.82
2017-12-17T21:07:49.204Z,11.95
2017-12-17T21:10:17.664Z,14.43
2017-12-17T21:12:46.488Z,13.15
2017-12-17T21:15:14.945Z,14.18
2017-12-17T21:17:43.864Z,13.98
2017-12-17T21:20:12.329Z,14.38
2017-12-17T21:22:40.829Z,12.77
2017-12-17T21:25:09.276Z,13.40
2017-12-17T21:27:38.196Z,18.75
2017-12-17T21:30:06.272Z,14.63
2017-12-17T21:32:34.340Z,18.67
2017-12-17T21:35:02.412Z,14.27
2017-12-17T21:37:30.465Z,14.80
2017-12-17T21:39:58.569Z,18.17
2017-12-17T21:42:26.979Z,16.00
2017-12-17T21:44:55.112Z,17.65
2017-12-17T21:47:23.284Z,16.40
2017-12-17T21:49:51.737Z,22.02
2017-12-17T21:52:20.658Z,16.08
2017-12-17T21:54:49.492Z,16.20
2017-12-17T21:57:17.619Z,16.30
2017-12-17T21:59:46.965Z,14.30
2017-12-17T22:02:15.096Z,14.55
2017-12-17T22:04:43.272Z,14.23
2017-12-17T22:07:11.720Z,18.05
2017-12-17T22:09:40.182Z,15.05
2017-12-17T22:12:09.844Z,15.15
2017-12-17T22:14:38.327Z,15.05
2017-12-17T22:17:06.495Z,18.30
2017-12-17T22:19:34.574Z,15.40
2017-12-17T22:22:02.645Z,18.00
2017-12-17T22:24:30.816Z,16.80
2017-12-17T22:26:58.875Z,16.95
2017-12-17T22:29:26.960Z,18.33
2017-12-17T22:31:55.044Z,13.95
2017-12-17T22:34:23.215Z,18.27
2017-12-17T22:36:51.276Z,16.98
2017-12-17T22:39:19.361Z,16.15
2017-12-17T22:41:47.524Z,14.73
2017-12-17T22:44:15.599Z,16.10
2017-12-17T22:46:43.652Z,15.10
2017-12-17T22:49:11.708Z,18.08
2017-12-17T22:51:40.636Z,16.42
2017-12-17T22:54:08.693Z,17.83
2017-12-17T22:56:36.886Z,17.20
2017-12-17T22:59:04.952Z,16.95
2017-12-17T23:01:33.023Z,16.30
2017-12-17T23:04:01.096Z,16.73
2017-12-17T23:06:29.169Z,16.48
2017-12-17T23:08:57.236Z,15.02
2017-12-17T23:11:25.415Z,13.60
2017-12-17T23:13:53.485Z,16.77
2017-12-17T23:16:21.665Z,17.70
2017-12-17T23:18:49.832Z,17.52
2017-12-17T23:21:17.936Z,18.35
2017-12-17T23:23:46.080Z,21.50
2017-12-17T23:26:14.252Z,18.40
2017-12-17T23:28:42.428Z,17.73
2017-12-17T23:31:10.488Z,19.95
2017-12-17T23:33:38.569Z,18.20
2017-12-17T23:36:06.645Z,20.65
2017-12-17T23:38:34.817Z,25.37
2017-12-17T23:41:02.992Z,27.45
2017-12-17T23:43:31.178Z,22.05
2017-12-17T23:50:54.384Z,19.30
2017-12-17T23:53:23.204Z,25.77
2017-12-17T23:55:52.036Z,22.33
2017-12-17T23:58:20.085Z,27.95
